Canisteo, Minnesota
Current Conditions -  °F | °C
As of 10:14 AM on Thursday 30 Oct 2014 (Local Time) from KTOB Reporting Station
Light Rain Light Rain  
Wind Chill: 40°   Ceiling: 4600
Heat Index: 43°   Visibility: 10mi
Dew Point: 37°   Wind: 5mph
Humidity: 81%   Direction: 180°S
Pressure: 30.06"   Gusts: NA
Location:  43.9902°N, 92.7388°W
Report Text: KTOB 301514Z AUTO 18004KT 10SM -RA BKN046 OVC050 06/03 A3006 RMK AO2
Loading
Personal Weather Stations






























Interactive Weather Map
Tropical Storm Tracking
New forecast layout! Learn more

10-Day Weather Forecast

Advertisements
Track Severe Weather on mobile